Merrill, Wisconsin
Current Conditions -  °F | °C
As of 9:35 PM on Saturday 22 Nov 2014 (Local Time) from KRRL Reporting Station
Haze Haze  
Wind Chill: 35°   Ceiling: 300
Heat Index: 35°   Visibility: 0.75mi
Dew Point: 35°   Wind: 3mph
Humidity: 100%   Direction: 150°SSE
Pressure: 29.69"   Gusts: NA
Location:  45.18°N, 89.69°W
Report Text: KRRL 230335Z AUTO 15003KT 3/4SM BR OVC003 02/02 A2969 RMK AO2 T00160016
Loading
Personal Weather Stations






























Interactive Weather Map New forecast layout! Learn more

10-Day Weather Forecast

Advertisements
Track Severe Weather on mobile